Time;durP1;ratioP1;P1;durP2;ratioP2;P2;SDS_P1;SDS_P2;PMS_P1;PMS_P2;Temp;Humidity;BMP_temperature;BMP_pressure;BME280_temperature;BME280_humidity;BME280_pressure;Samples;Min_cycle;Max_cycle;Signal;HPM_P1;HPM_P2
2024/03/04 00:01:04;;;;;;;2.55;1.88;;;4.90;18.60;;;;;;4964062;28;20519;-76
2024/03/04 00:03:32;;;;;;;0.88;0.85;;;4.80;22.90;;;;;;4966599;28;20042;-76
2024/03/04 00:06:00;;;;;;;0.85;0.70;;;4.80;16.80;;;;;;4960575;28;20038;-76
2024/03/04 00:08:27;;;;;;;1.83;1.65;;;4.70;10.20;;;;;;4952548;28;20560;-76
2024/03/04 00:10:54;;;;;;;2.22;1.73;;;4.80;11.70;;;;;;4960819;28;20047;-76
2024/03/04 00:13:22;;;;;;;1.85;1.75;;;4.80;18.00;;;;;;4964521;28;20031;-75
2024/03/04 00:15:49;;;;;;;1.52;1.42;;;4.80;24.20;;;;;;4960844;28;20053;-76
2024/03/04 00:18:15;;;;;;;2.95;2.15;;;4.80;16.20;;;;;;4968217;28;20086;-76
2024/03/04 00:20:41;;;;;;;2.40;2.20;;;4.80;1.00;;;;;;4962844;28;20043;-76
2024/03/04 00:23:08;;;;;;;0.57;0.57;;;4.70;1.00;;;;;;4965540;28;20027;-76
2024/03/04 00:25:34;;;;;;;0.80;0.80;;;4.60;1.00;;;;;;4960019;28;20386;-76
2024/03/04 00:28:00;;;;;;;1.98;1.88;;;4.50;1.00;;;;;;4964382;28;20039;-75
2024/03/04 00:30:26;;;;;;;1.98;1.85;;;4.40;17.70;;;;;;4959748;28;20038;-76
2024/03/04 00:32:52;;;;;;;2.90;1.52;;;4.30;40.20;;;;;;4962090;28;20038;-76
2024/03/04 00:35:19;;;;;;;1.20;1.13;;;4.20;63.50;;;;;;4963272;28;20400;-76
2024/03/04 00:37:46;;;;;;;3.05;2.33;;;4.10;91.70;;;;;;4944868;28;20054;-75
2024/03/04 00:40:13;;;;;;;1.50;1.30;;;4.20;99.90;;;;;;4949035;28;20041;-76
2024/03/04 00:42:39;;;;;;;1.48;1.33;;;4.20;99.90;;;;;;4965621;28;20051;-75
2024/03/04 00:45:06;;;;;;;1.83;1.73;;;4.20;99.90;;;;;;4964472;28;20039;-76
2024/03/04 00:47:33;;;;;;;2.03;0.95;;;4.20;99.90;;;;;;4953592;28;20046;-76
2024/03/04 00:49:59;;;;;;;1.25;0.65;;;4.30;99.90;;;;;;4968570;28;20038;-76
2024/03/04 00:52:25;;;;;;;1.08;1.05;;;4.20;99.90;;;;;;4965537;28;20031;-76
2024/03/04 00:54:52;;;;;;;0.85;0.85;;;4.20;99.90;;;;;;4967278;28;20051;-76
2024/03/04 00:57:19;;;;;;;0.95;0.95;;;4.20;99.90;;;;;;4960975;28;20038;-76
2024/03/04 00:59:45;;;;;;;2.58;2.25;;;4.20;99.90;;;;;;4961575;28;20047;-76
2024/03/04 01:02:11;;;;;;;1.50;1.23;;;4.20;99.90;;;;;;4961172;28;20038;-76
2024/03/04 01:04:39;;;;;;;3.72;2.53;;;4.20;99.90;;;;;;4963219;28;20043;-76
2024/03/04 01:07:06;;;;;;;1.85;1.70;;;4.10;99.90;;;;;;4950190;28;20042;-76
2024/03/04 01:09:32;;;;;;;1.60;1.40;;;4.10;99.90;;;;;;4967657;28;20031;-76
2024/03/04 01:11:58;;;;;;;1.42;1.33;;;4.10;99.90;;;;;;4962572;28;20043;-76
2024/03/04 01:14:24;;;;;;;1.88;1.77;;;4.10;99.90;;;;;;4955760;28;20369;-76
2024/03/04 01:16:52;;;;;;;0.93;0.93;;;4.00;99.90;;;;;;4963719;28;20039;-76
2024/03/04 01:19:19;;;;;;;2.17;1.92;;;4.00;99.90;;;;;;4964344;28;20424;-76
2024/03/04 01:21:47;;;;;;;1.10;1.10;;;4.00;99.90;;;;;;4967144;28;20062;-76
2024/03/04 01:24:15;;;;;;;0.52;0.52;;;4.00;99.90;;;;;;4965457;28;20495;-75
2024/03/04 01:26:42;;;;;;;1.60;1.50;;;4.00;99.90;;;;;;4955895;28;20376;-76
2024/03/04 01:29:08;;;;;;;1.38;1.27;;;4.00;99.90;;;;;;4954396;28;20118;-76
2024/03/04 01:31:34;;;;;;;1.25;1.15;;;3.90;99.90;;;;;;4966705;28;20039;-76
2024/03/04 01:34:02;;;;;;;1.48;1.38;;;4.00;99.90;;;;;;4965730;28;20042;-76
2024/03/04 01:36:31;;;;;;;2.95;2.05;;;3.90;99.90;;;;;;4965754;28;20472;-76
2024/03/04 01:38:58;;;;;;;2.67;1.70;;;4.00;99.90;;;;;;4969999;28;20039;-76
2024/03/04 01:41:24;;;;;;;0.52;0.52;;;4.00;99.90;;;;;;4963753;28;20035;-76
2024/03/04 01:43:50;;;;;;;1.17;0.80;;;4.00;99.90;;;;;;4954209;28;20082;-76
2024/03/04 01:46:17;;;;;;;3.78;1.73;;;4.00;99.90;;;;;;4966188;28;20043;-76
2024/03/04 01:48:45;;;;;;;3.38;1.88;;;3.90;99.90;;;;;;4965131;28;20027;-76
2024/03/04 01:51:12;;;;;;;3.45;2.33;;;3.90;99.90;;;;;;4962977;28;20051;-76
2024/03/04 01:53:39;;;;;;;1.77;1.65;;;3.80;99.90;;;;;;4955655;28;20062;-76
2024/03/04 01:56:07;;;;;;;3.03;1.52;;;3.80;99.90;;;;;;4962745;28;20022;-76
2024/03/04 01:58:41;;;;;;;2.20;1.92;;;3.80;99.90;;;;;;4970827;28;20440;-76
2024/03/04 02:01:07;;;;;;;3.58;2.30;;;3.70;99.90;;;;;;4963834;28;20027;-76
2024/03/04 02:03:35;;;;;;;6.55;3.00;;;3.70;99.90;;;;;;4967903;28;20035;-76
2024/03/04 02:06:03;;;;;;;0.90;0.90;;;3.60;99.90;;;;;;4965521;28;20043;-76
2024/03/04 02:08:30;;;;;;;4.15;3.13;;;3.60;99.90;;;;;;4964937;28;20038;-76
2024/03/04 02:10:57;;;;;;;4.85;2.08;;;3.60;99.90;;;;;;4967683;28;20054;-76
2024/03/04 02:13:25;;;;;;;0.80;0.80;;;3.70;99.90;;;;;;4963228;28;20042;-75
2024/03/04 02:15:51;;;;;;;2.35;2.22;;;3.70;99.90;;;;;;4968224;28;20035;-76
2024/03/04 02:18:20;;;;;;;1.60;1.50;;;3.60;99.90;;;;;;4965978;28;20039;-76
2024/03/04 02:20:47;;;;;;;6.50;2.60;;;3.60;99.90;;;;;;4970182;28;20031;-76
2024/03/04 02:23:14;;;;;;;1.65;1.52;;;3.60;99.90;;;;;;4971757;28;20045;-76
2024/03/04 02:25:52;;;;;;;1.40;1.30;;;3.50;99.90;;;;;;4956102;28;20054;-76
2024/03/04 02:28:19;;;;;;;4.32;2.45;;;3.50;99.90;;;;;;4975719;28;20059;-76
2024/03/04 02:30:46;;;;;;;20.50;1.90;;;3.50;99.90;;;;;;4974578;28;20050;-76
2024/03/04 02:33:13;;;;;;;1.48;1.38;;;3.50;99.90;;;;;;4974432;28;20075;-76
2024/03/04 02:35:40;;;;;;;7.43;1.60;;;3.50;99.90;;;;;;4968077;28;20512;-76
2024/03/04 02:38:07;;;;;;;2.42;1.27;;;3.40;99.90;;;;;;4965575;28;20604;-76
2024/03/04 02:40:33;;;;;;;1.05;0.95;;;3.40;99.90;;;;;;4967205;28;20033;-76
2024/03/04 02:43:00;;;;;;;2.10;1.77;;;3.50;99.90;;;;;;4962196;28;20497;-76
2024/03/04 02:45:26;;;;;;;2.00;1.85;;;3.50;99.90;;;;;;4965915;28;20404;-76
2024/03/04 02:47:52;;;;;;;5.68;2.63;;;3.50;99.90;;;;;;4964564;28;20043;-76
2024/03/04 02:50:18;;;;;;;5.90;2.63;;;3.40;99.90;;;;;;4964848;28;20038;-76
2024/03/04 02:52:44;;;;;;;1.52;1.42;;;3.30;99.90;;;;;;4964984;28;20054;-76
2024/03/04 02:55:10;;;;;;;1.45;1.00;;;3.30;99.90;;;;;;4964052;28;20035;-75
2024/03/04 02:57:37;;;;;;;1.27;1.17;;;3.30;99.90;;;;;;4960002;28;20039;-76
2024/03/04 03:00:06;;;;;;;0.55;0.55;;;3.30;99.90;;;;;;4962883;28;20039;-76
2024/03/04 03:02:32;;;;;;;1.95;1.83;;;3.30;99.90;;;;;;4962102;28;20047;-76
2024/03/04 03:04:58;;;;;;;1.67;1.58;;;3.20;99.90;;;;;;4966500;28;20046;-76
2024/03/04 03:07:24;;;;;;;1.33;1.23;;;3.20;99.90;;;;;;4964820;28;20040;-76
2024/03/04 03:09:50;;;;;;;1.40;1.30;;;3.20;99.90;;;;;;4962584;28;20046;-75
2024/03/04 03:12:17;;;;;;;0.47;0.47;;;3.20;99.90;;;;;;4963654;28;20054;-76
2024/03/04 03:14:43;;;;;;;1.42;1.33;;;3.10;99.90;;;;;;4962238;28;20062;-76
2024/03/04 03:17:09;;;;;;;3.90;1.85;;;3.00;99.90;;;;;;4961779;28;20027;-75
2024/03/04 03:19:36;;;;;;;1.55;1.48;;;3.00;99.90;;;;;;4962727;28;20054;-76
2024/03/04 03:22:02;;;;;;;6.35;2.65;;;3.10;99.90;;;;;;4964916;28;20046;-75
2024/03/04 03:24:29;;;;;;;5.88;2.38;;;3.10;99.90;;;;;;4954107;28;20042;-77
2024/03/04 03:26:55;;;;;;;0.40;0.40;;;3.10;99.90;;;;;;4960858;28;20042;-76
2024/03/04 03:29:21;;;;;;;1.42;1.20;;;3.10;99.90;;;;;;4967266;28;20397;-76
2024/03/04 03:31:48;;;;;;;2.15;1.67;;;3.00;99.90;;;;;;4962384;28;20047;-76
2024/03/04 03:34:14;;;;;;;2.40;1.55;;;3.00;1.00;;;;;;4966058;28;20452;-76
2024/03/04 03:36:41;;;;;;;2.38;2.28;;;3.00;1.00;;;;;;4968022;28;20492;-76
2024/03/04 03:39:09;;;;;;;0.93;0.93;;;3.00;1.00;;;;;;4964462;28;20041;-76
2024/03/04 03:41:36;;;;;;;2.67;2.47;;;3.00;1.00;;;;;;4959700;28;20448;-76
2024/03/04 03:44:03;;;;;;;1.75;1.55;;;3.00;1.00;;;;;;4964281;28;20063;-76
2024/03/04 03:46:29;;;;;;;1.85;1.75;;;3.10;1.00;;;;;;4952922;28;20085;-76
2024/03/04 03:48:55;;;;;;;2.60;1.95;;;3.10;1.00;;;;;;4964294;28;20508;-76
2024/03/04 03:51:22;;;;;;;1.02;1.02;;;3.20;1.00;;;;;;4967338;28;20054;-76
2024/03/04 03:53:48;;;;;;;10.20;3.00;;;3.30;1.00;;;;;;4964305;28;20745;-76
2024/03/04 03:56:15;;;;;;;1.77;1.67;;;3.30;1.00;;;;;;4961197;28;20035;-76
2024/03/04 03:58:41;;;;;;;2.42;1.73;;;3.40;1.00;;;;;;4961739;28;20046;-76
2024/03/04 04:01:07;;;;;;;2.72;1.95;;;3.50;1.00;;;;;;4945433;28;20042;-76
2024/03/04 04:03:34;;;;;;;2.58;2.00;;;3.60;99.90;;;;;;4961587;28;20039;-76
2024/03/04 04:06:01;;;;;;;1.17;1.13;;;3.70;99.90;;;;;;4964748;28;20035;-76
2024/03/04 04:08:28;;;;;;;4.13;3.28;;;3.70;99.90;;;;;;4965753;28;20038;-76
2024/03/04 04:10:54;;;;;;;3.60;2.70;;;3.80;99.90;;;;;;4961860;28;20545;-76
2024/03/04 04:13:21;;;;;;;2.50;2.30;;;4.00;99.90;;;;;;4961282;28;20039;-76
2024/03/04 04:15:51;;;;;;;2.55;2.30;;;4.00;99.90;;;;;;4958336;28;20035;-76
2024/03/04 04:18:17;;;;;;;6.30;4.20;;;4.10;99.90;;;;;;4960597;28;20027;-76
2024/03/04 04:20:44;;;;;;;1.92;1.75;;;4.10;99.90;;;;;;4966604;28;20027;-76
2024/03/04 04:23:11;;;;;;;2.35;2.15;;;4.20;99.90;;;;;;4967184;28;20046;-76
2024/03/04 04:25:37;;;;;;;4.15;1.48;;;4.30;99.90;;;;;;4963165;28;20027;-75
2024/03/04 04:28:04;;;;;;;2.28;2.03;;;4.30;99.90;;;;;;4963744;28;20043;-76
2024/03/04 04:30:30;;;;;;;2.28;2.17;;;4.40;99.90;;;;;;4961107;28;20039;-76
2024/03/04 04:32:56;;;;;;;1.80;1.67;;;4.50;99.90;;;;;;4965733;28;20043;-76
2024/03/04 04:35:22;;;;;;;0.43;0.43;;;4.50;99.90;;;;;;4966206;28;20035;-76
2024/03/04 04:37:48;;;;;;;1.15;1.13;;;4.60;99.90;;;;;;4958693;28;20043;-76
2024/03/04 04:40:21;;;;;;;1.95;1.75;;;4.70;99.90;;;;;;4964059;28;20052;-76
2024/03/04 04:42:47;;;;;;;6.20;2.15;;;4.70;99.90;;;;;;4944309;28;20050;-76
2024/03/04 04:45:13;;;;;;;2.38;2.20;;;4.70;99.90;;;;;;4965456;28;20046;-76
2024/03/04 04:47:39;;;;;;;4.00;3.10;;;4.80;99.90;;;;;;4963906;28;20396;-76
2024/03/04 04:50:06;;;;;;;0.57;0.57;;;4.90;99.90;;;;;;4967392;28;20039;-76
2024/03/04 04:52:32;;;;;;;2.88;2.67;;;4.90;99.90;;;;;;4969421;28;20325;-76
2024/03/04 04:54:58;;;;;;;2.45;1.83;;;5.00;99.90;;;;;;4967780;28;20043;-77
2024/03/04 04:57:25;;;;;;;3.65;2.35;;;5.10;99.90;;;;;;4964561;28;20043;-76
2024/03/04 04:59:52;;;;;;;1.92;1.83;;;5.20;99.90;;;;;;4966262;28;20046;-77
2024/03/04 05:02:18;;;;;;;1.58;1.33;;;5.30;99.90;;;;;;4969785;28;20371;-79
2024/03/04 05:04:44;;;;;;;3.25;2.95;;;5.30;99.90;;;;;;4966595;28;20027;-77
2024/03/04 05:07:10;;;;;;;7.25;3.20;;;5.40;99.90;;;;;;4964608;28;20030;-77
2024/03/04 05:09:37;;;;;;;2.38;2.17;;;5.40;99.90;;;;;;4967457;28;20035;-78
2024/03/04 05:12:03;;;;;;;2.42;2.22;;;5.40;99.90;;;;;;4966997;28;20043;-78
2024/03/04 05:14:30;;;;;;;6.88;3.35;;;5.50;99.90;;;;;;4977442;28;20396;-78
2024/03/04 05:16:56;;;;;;;3.97;2.60;;;5.50;99.90;;;;;;4984236;28;20046;-77
2024/03/04 05:19:25;;;;;;;2.85;2.65;;;5.50;99.90;;;;;;4986793;28;20034;-79
2024/03/04 05:21:51;;;;;;;5.57;2.78;;;5.60;99.90;;;;;;4978154;28;20361;-79
2024/03/04 05:24:17;;;;;;;3.28;2.67;;;5.60;99.90;;;;;;4957812;28;20039;-78
2024/03/04 05:26:43;;;;;;;2.85;2.60;;;5.70;99.90;;;;;;4963497;28;20034;-78
2024/03/04 05:29:10;;;;;;;4.95;4.18;;;5.70;99.90;;;;;;4964622;28;20038;-78
2024/03/04 05:31:55;;;;;;;3.15;2.90;;;5.70;99.90;;;;;;4967202;28;20047;-78
2024/03/04 05:34:21;;;;;;;5.57;1.45;;;5.70;99.90;;;;;;4970923;28;20046;-78
2024/03/04 05:36:48;;;;;;;15.85;2.30;;;5.80;99.90;;;;;;4967998;28;20034;-78
2024/03/04 05:39:21;;;;;;;5.35;3.38;;;5.80;99.90;;;;;;4966430;28;20061;-78
2024/03/04 05:41:50;;;;;;;4.88;2.92;;;5.90;99.90;;;;;;4965040;28;20070;-78
2024/03/04 05:44:17;;;;;;;1.55;1.45;;;5.90;99.90;;;;;;4966597;28;20431;-78
2024/03/04 05:46:46;;;;;;;2.05;1.85;;;5.90;99.90;;;;;;4963982;28;20481;-79
2024/03/04 05:49:12;;;;;;;3.45;2.80;;;5.90;99.90;;;;;;4967407;28;20045;-78
2024/03/04 05:51:40;;;;;;;1.00;1.00;;;5.90;99.90;;;;;;4969448;28;20035;-79
2024/03/04 05:54:06;;;;;;;2.78;2.58;;;5.90;99.90;;;;;;4969521;28;20034;-78
2024/03/04 05:56:32;;;;;;;2.72;1.17;;;6.00;99.90;;;;;;4965472;28;20031;-79
2024/03/04 05:58:59;;;;;;;2.88;2.30;;;6.00;99.90;;;;;;4978895;28;20034;-78
2024/03/04 06:01:25;;;;;;;1.92;1.83;;;6.00;99.90;;;;;;4967231;28;20393;-79
2024/03/04 06:03:51;;;;;;;3.30;3.05;;;6.00;99.90;;;;;;4969441;28;20046;-75
2024/03/04 06:06:17;;;;;;;6.53;5.25;;;6.10;99.90;;;;;;4968283;28;20049;-78
2024/03/04 06:08:43;;;;;;;3.20;2.92;;;6.10;99.90;;;;;;4968932;28;20404;-78
2024/03/04 06:11:10;;;;;;;3.40;3.10;;;6.20;99.90;;;;;;4968629;28;20046;-78
2024/03/04 06:13:36;;;;;;;3.97;3.67;;;6.30;99.90;;;;;;4963175;28;20058;-78
2024/03/04 06:16:03;;;;;;;4.00;2.35;;;6.50;99.90;;;;;;4962654;28;20031;-78
2024/03/04 06:18:30;;;;;;;5.40;4.18;;;6.70;99.90;;;;;;4966689;28;20027;-77
2024/03/04 06:20:56;;;;;;;4.80;3.65;;;6.70;99.90;;;;;;4969899;28;20132;-77
2024/03/04 06:23:23;;;;;;;6.10;3.80;;;6.90;99.90;;;;;;4967189;28;20474;-78
2024/03/04 06:25:49;;;;;;;7.85;3.53;;;7.00;99.90;;;;;;4962031;28;20023;-77
2024/03/04 06:28:16;;;;;;;4.40;4.05;;;7.10;99.90;;;;;;4959593;28;20047;-78
2024/03/04 06:30:42;;;;;;;18.45;4.30;;;7.10;99.90;;;;;;4965392;28;20047;-78
2024/03/04 06:33:08;;;;;;;3.83;3.30;;;7.20;99.90;;;;;;4966632;28;20050;-78
2024/03/04 06:35:35;;;;;;;8.23;5.82;;;7.20;99.90;;;;;;4947346;28;20039;-77
2024/03/04 06:38:03;;;;;;;10.48;4.35;;;7.30;99.90;;;;;;4967308;28;20035;-78
2024/03/04 06:40:29;;;;;;;8.18;6.43;;;7.30;99.90;;;;;;4967113;28;20046;-78
2024/03/04 06:42:55;;;;;;;7.13;3.55;;;7.40;99.90;;;;;;4966225;28;20051;-78
2024/03/04 06:45:21;;;;;;;7.10;5.82;;;7.40;99.90;;;;;;4942377;28;20035;-78
2024/03/04 06:47:48;;;;;;;7.35;2.97;;;7.40;99.90;;;;;;4963555;28;20047;-78
2024/03/04 06:50:14;;;;;;;5.80;4.38;;;7.50;99.90;;;;;;4968859;28;20042;-78
2024/03/04 06:52:40;;;;;;;5.78;3.83;;;7.50;99.90;;;;;;4966971;28;20061;-77
2024/03/04 06:55:07;;;;;;;8.85;2.67;;;7.60;99.90;;;;;;4967001;28;20464;-77
2024/03/04 06:57:33;;;;;;;3.50;2.97;;;7.60;99.90;;;;;;4963172;28;20153;-76
2024/03/04 07:00:00;;;;;;;4.57;4.10;;;7.70;99.90;;;;;;4955149;28;20034;-76
2024/03/04 07:02:26;;;;;;;5.20;4.05;;;7.70;99.90;;;;;;4965827;28;20042;-77
2024/03/04 07:04:52;;;;;;;6.25;4.35;;;7.70;95.50;;;;;;4964433;28;20031;-77
2024/03/04 07:07:18;;;;;;;14.68;7.80;;;7.70;86.50;;;;;;4961658;28;20035;-76
2024/03/04 07:09:44;;;;;;;4.45;4.10;;;7.80;68.80;;;;;;4963406;28;20042;-77
2024/03/04 07:12:10;;;;;;;5.93;4.03;;;7.80;44.40;;;;;;4959677;28;20047;-77
2024/03/04 07:14:37;;;;;;;5.85;4.43;;;7.90;28.50;;;;;;4966554;28;20046;-77
2024/03/04 07:17:03;;;;;;;10.20;6.00;;;7.90;17.10;;;;;;4962423;28;20046;-77
2024/03/04 07:19:29;;;;;;;14.75;6.47;;;7.90;4.90;;;;;;4964407;28;20045;-77
2024/03/04 07:21:55;;;;;;;6.20;3.85;;;8.00;1.00;;;;;;4963009;28;20487;-77
2024/03/04 07:24:22;;;;;;;12.68;6.50;;;8.10;1.00;;;;;;4947395;28;20042;-77
2024/03/04 07:26:48;;;;;;;13.20;3.70;;;8.10;1.00;;;;;;4962666;28;20040;-77
2024/03/04 07:29:14;;;;;;;10.32;4.65;;;8.10;1.00;;;;;;4957693;28;20469;-77
2024/03/04 07:31:40;;;;;;;7.05;3.33;;;8.10;1.00;;;;;;4964276;28;20043;-77
2024/03/04 07:34:06;;;;;;;4.72;2.95;;;8.10;1.00;;;;;;4969042;28;21041;-76
2024/03/04 07:36:32;;;;;;;5.65;3.83;;;8.10;1.00;;;;;;4963157;28;20041;-77
2024/03/04 07:38:59;;;;;;;4.68;3.10;;;8.20;1.00;;;;;;4964173;28;20031;-77
2024/03/04 07:41:26;;;;;;;7.03;5.25;;;8.20;1.00;;;;;;4964716;28;20039;-77
2024/03/04 07:43:52;;;;;;;3.13;2.72;;;8.20;1.00;;;;;;4964173;28;20062;-77
2024/03/04 07:46:18;;;;;;;5.20;3.70;;;8.20;1.00;;;;;;4963625;28;20036;-77
2024/03/04 07:48:44;;;;;;;5.10;2.78;;;8.30;1.00;;;;;;4964878;28;20035;-77
2024/03/04 07:51:10;;;;;;;6.68;3.97;;;8.30;1.00;;;;;;4961887;28;20030;-77
2024/03/04 07:53:37;;;;;;;3.22;2.83;;;8.30;1.00;;;;;;4967109;28;20468;-77
2024/03/04 07:56:03;;;;;;;7.05;3.15;;;8.30;1.00;;;;;;4965378;28;20081;-77
2024/03/04 07:58:29;;;;;;;7.18;2.90;;;8.30;1.00;;;;;;4966529;28;20046;-77
2024/03/04 08:00:55;;;;;;;4.68;2.60;;;8.40;1.00;;;;;;4977179;28;20039;-76
2024/03/04 08:03:22;;;;;;;9.40;4.88;;;8.40;1.00;;;;;;4977797;28;20248;-76
2024/03/04 08:05:49;;;;;;;3.83;3.03;;;8.40;1.00;;;;;;4985371;28;20026;-77
2024/03/04 08:08:15;;;;;;;3.50;2.13;;;8.40;1.00;;;;;;4974915;28;20046;-77
2024/03/04 08:10:41;;;;;;;8.65;2.22;;;8.40;99.90;;;;;;4962131;28;20098;-78
2024/03/04 08:13:07;;;;;;;4.20;3.85;;;8.50;99.90;;;;;;4968601;28;20038;-77
2024/03/04 08:15:33;;;;;;;4.22;3.92;;;8.50;99.90;;;;;;4966656;28;20039;-77
2024/03/04 08:18:00;;;;;;;3.25;2.95;;;8.50;99.90;;;;;;4962611;28;20027;-77
2024/03/04 08:20:26;;;;;;;3.67;3.17;;;8.60;99.90;;;;;;4966962;28;20050;-77
2024/03/04 08:22:53;;;;;;;4.43;4.00;;;8.50;99.90;;;;;;4968207;28;20043;-77
2024/03/04 08:25:19;;;;;;;2.40;2.20;;;8.60;99.90;;;;;;4962235;28;20039;-76
2024/03/04 08:27:46;;;;;;;7.22;4.72;;;8.70;99.90;;;;;;4961352;28;20401;-76
2024/03/04 08:30:15;;;;;;;5.15;3.10;;;8.70;99.90;;;;;;4959653;28;20046;-76
2024/03/04 08:32:44;;;;;;;5.30;3.00;;;8.70;99.90;;;;;;4965536;28;20049;-77
2024/03/04 08:35:12;;;;;;;5.38;3.67;;;8.70;99.90;;;;;;4963516;28;20031;-76
2024/03/04 08:37:39;;;;;;;11.20;2.65;;;8.70;99.90;;;;;;4964963;28;20415;-77
2024/03/04 08:40:06;;;;;;;2.75;2.38;;;8.80;99.90;;;;;;4964072;28;20046;-76
2024/03/04 08:42:32;;;;;;;3.10;2.90;;;8.80;99.90;;;;;;4960847;28;20041;-77
2024/03/04 08:44:59;;;;;;;4.20;3.75;;;8.80;99.90;;;;;;4963821;28;20035;-78
2024/03/04 08:47:25;;;;;;;2.17;2.03;;;8.90;99.90;;;;;;4949341;28;20046;-78
2024/03/04 08:49:52;;;;;;;8.27;3.88;;;8.80;99.90;;;;;;4953531;28;20138;-78
2024/03/04 08:52:18;;;;;;;3.47;3.17;;;8.90;99.90;;;;;;4950780;28;20050;-77
2024/03/04 08:54:44;;;;;;;6.97;2.20;;;8.90;99.90;;;;;;4951597;28;20506;-77
2024/03/04 08:57:11;;;;;;;6.30;4.22;;;8.90;99.90;;;;;;4947296;28;20035;-78
2024/03/04 08:59:38;;;;;;;2.17;1.98;;;8.90;99.90;;;;;;4944616;28;20112;-79
2024/03/04 09:02:06;;;;;;;2.30;2.10;;;8.90;99.90;;;;;;4967941;28;20039;-76
2024/03/04 09:04:33;;;;;;;4.78;2.15;;;9.00;99.90;;;;;;4963041;28;20034;-78
2024/03/04 09:06:59;;;;;;;4.40;2.75;;;9.00;99.90;;;;;;4945847;28;20028;-78
2024/03/04 09:09:25;;;;;;;9.73;3.55;;;9.00;99.90;;;;;;4965559;28;20031;-77
2024/03/04 09:11:52;;;;;;;3.88;2.28;;;9.00;99.90;;;;;;4963254;28;20034;-78
2024/03/04 09:14:19;;;;;;;4.32;3.70;;;9.00;99.90;;;;;;4957650;28;20034;-74
2024/03/04 09:16:45;;;;;;;4.85;2.38;;;9.00;99.90;;;;;;4963087;28;20039;-76
2024/03/04 09:19:11;;;;;;;1.77;1.67;;;8.90;99.90;;;;;;4963355;28;20039;-76
2024/03/04 09:21:38;;;;;;;2.75;2.50;;;9.00;99.90;;;;;;4965495;28;20053;-76
2024/03/04 09:24:04;;;;;;;4.88;2.90;;;9.00;99.90;;;;;;4966165;28;20039;-75
2024/03/04 09:26:31;;;;;;;3.15;2.95;;;9.10;99.90;;;;;;4943361;28;20123;-76
2024/03/04 09:28:57;;;;;;;1.90;1.80;;;9.00;99.90;;;;;;4962505;28;20031;-74
2024/03/04 09:31:23;;;;;;;2.67;2.03;;;9.00;99.90;;;;;;4966531;28;20046;-78
2024/03/04 09:33:49;;;;;;;3.90;3.22;;;9.00;99.90;;;;;;4972157;28;20073;-78
2024/03/04 09:36:15;;;;;;;7.25;4.22;;;9.00;99.90;;;;;;4967851;28;20050;-78
2024/03/04 09:38:43;;;;;;;2.17;1.83;;;9.00;99.90;;;;;;4970705;28;20038;-78
2024/03/04 09:41:09;;;;;;;3.20;2.90;;;9.00;99.90;;;;;;4966960;28;20042;-78
2024/03/04 09:43:39;;;;;;;5.13;2.28;;;9.00;99.90;;;;;;4954622;28;20051;-79
2024/03/04 09:46:07;;;;;;;2.33;1.42;;;9.10;99.90;;;;;;4965210;28;20046;-79
2024/03/04 09:48:37;;;;;;;2.13;1.88;;;9.10;99.90;;;;;;4965368;28;20031;-79
2024/03/04 09:51:07;;;;;;;2.00;1.73;;;9.10;99.90;;;;;;4968637;28;20047;-79
2024/03/04 09:53:37;;;;;;;1.30;1.20;;;9.20;99.90;;;;;;4968257;28;20279;-79
2024/03/04 09:56:04;;;;;;;3.40;2.75;;;9.20;99.90;;;;;;4968167;28;20034;-79
2024/03/04 09:58:32;;;;;;;4.32;3.42;;;9.20;99.90;;;;;;4966826;28;20027;-79
2024/03/04 10:00:59;;;;;;;3.67;2.60;;;9.20;96.70;;;;;;4962194;28;20047;-79
2024/03/04 10:03:26;;;;;;;2.05;1.88;;;9.20;91.90;;;;;;4963860;28;20031;-79
2024/03/04 10:05:54;;;;;;;2.20;1.33;;;9.30;91.40;;;;;;4968051;28;20035;-79
2024/03/04 10:08:20;;;;;;;3.60;2.45;;;9.30;93.00;;;;;;4967961;28;20031;-79
2024/03/04 10:10:51;;;;;;;1.67;1.52;;;9.30;87.30;;;;;;4968293;28;20047;-79
2024/03/04 10:13:18;;;;;;;2.28;1.42;;;9.30;73.20;;;;;;4960708;28;20027;-79
2024/03/04 10:15:46;;;;;;;1.40;1.30;;;9.30;76.40;;;;;;4956349;28;20428;-80
2024/03/04 10:18:13;;;;;;;2.60;2.13;;;9.40;79.50;;;;;;4960971;28;20030;-79
2024/03/04 10:20:40;;;;;;;1.02;1.00;;;9.40;26.20;;;;;;4960385;28;20043;-80
2024/03/04 10:23:06;;;;;;;6.20;3.83;;;9.30;48.00;;;;;;4951265;28;20045;-79
2024/03/04 10:25:33;;;;;;;1.40;1.30;;;9.30;72.10;;;;;;4950781;28;20110;-79
2024/03/04 10:28:00;;;;;;;2.72;2.47;;;9.30;81.20;;;;;;4973968;28;20038;-80
2024/03/04 10:30:27;;;;;;;12.48;3.60;;;9.30;63.50;;;;;;4964184;28;20039;-80
2024/03/04 10:32:55;;;;;;;2.67;1.95;;;9.40;58.30;;;;;;4951606;28;20047;-79
2024/03/04 10:35:22;;;;;;;3.20;1.55;;;9.40;47.90;;;;;;4971340;28;20035;-79
2024/03/04 10:37:50;;;;;;;7.45;2.17;;;9.40;28.40;;;;;;4977375;28;20435;-79
2024/03/04 10:40:19;;;;;;;4.82;4.18;;;9.40;31.10;;;;;;4969001;28;20055;-78
2024/03/04 10:42:46;;;;;;;2.75;2.30;;;9.30;37.80;;;;;;4971134;28;20055;-80
2024/03/04 10:45:14;;;;;;;2.10;1.90;;;9.40;51.20;;;;;;4961108;28;20493;-79
2024/03/04 10:47:43;;;;;;;4.95;3.83;;;9.30;48.30;;;;;;4967928;28;20035;-79
2024/03/04 10:50:09;;;;;;;10.77;2.33;;;9.50;44.40;;;;;;4964437;28;20062;-80
2024/03/04 10:52:36;;;;;;;2.30;2.08;;;9.50;39.70;;;;;;4960962;28;20043;-80
2024/03/04 10:55:02;;;;;;;8.20;2.67;;;9.50;30.60;;;;;;4978218;28;20034;-80
2024/03/04 10:57:35;;;;;;;4.63;2.38;;;9.50;19.30;;;;;;4964973;28;20043;-81
2024/03/04 11:00:17;;;;;;;8.00;2.30;;;9.50;1.00;;;;;;4964851;28;20031;-80
2024/03/04 11:03:05;;;;;;;3.53;2.15;;;9.60;1.00;;;;;;4967774;28;20039;-80
2024/03/04 11:05:33;;;;;;;13.43;2.92;;;9.60;1.00;;;;;;4964963;28;20041;-80
2024/03/04 11:08:09;;;;;;;2.60;2.20;;;9.60;1.00;;;;;;4969093;28;20031;-81
2024/03/04 11:10:47;;;;;;;3.20;2.28;;;9.60;1.00;;;;;;4970744;28;20043;-80
2024/03/04 11:13:50;;;;;;;1.90;1.42;;;9.60;1.00;;;;;;4939873;28;20032;-78
2024/03/04 11:16:20;;;;;;;1.90;1.48;;;9.60;1.00;;;;;;4974200;28;20376;-80
2024/03/04 11:19:34;;;;;;;6.35;3.13;;;9.60;6.00;;;;;;4971702;28;20026;-80
2024/03/04 11:22:03;;;;;;;4.57;2.47;;;9.50;1.00;;;;;;4931465;29;20047;-77
2024/03/04 11:24:32;;;;;;;10.88;1.90;;;9.50;1.00;;;;;;4927453;29;20032;-80
2024/03/04 11:26:59;;;;;;;5.70;3.38;;;9.50;1.00;;;;;;4930692;29;20054;-79
2024/03/04 11:29:26;;;;;;;1.95;1.58;;;9.50;22.40;;;;;;4920272;29;20040;-79
2024/03/04 11:31:56;;;;;;;2.58;2.00;;;9.50;11.30;;;;;;4932709;29;20063;-79
2024/03/04 11:34:22;;;;;;;1.35;1.25;;;9.60;1.00;;;;;;4930312;29;20039;-80
2024/03/04 11:36:53;;;;;;;4.15;2.85;;;9.50;1.00;;;;;;4945130;29;20669;-79
2024/03/04 11:39:21;;;;;;;4.53;1.88;;;9.50;9.80;;;;;;4941530;29;20055;-77
2024/03/04 11:41:49;;;;;;;2.33;2.13;;;9.50;1.00;;;;;;4934194;29;20036;-79
2024/03/04 11:44:35;;;;;;;3.45;2.47;;;9.40;20.50;;;;;;4920893;29;20458;-79
2024/03/04 11:47:10;;;;;;;2.35;2.17;;;9.40;26.40;;;;;;4923029;29;20422;-79
2024/03/04 11:49:47;;;;;;;5.80;1.77;;;9.30;21.50;;;;;;4922710;29;20059;-80
2024/03/04 11:52:20;;;;;;;2.53;2.00;;;9.40;39.00;;;;;;4925278;29;21030;-80
2024/03/04 11:54:47;;;;;;;3.72;2.20;;;9.50;27.30;;;;;;4926532;29;20036;-78
2024/03/04 11:57:15;;;;;;;3.80;2.03;;;9.50;2.40;;;;;;4929273;28;20039;-77
2024/03/04 12:00:00;;;;;;;5.40;3.20;;;9.50;5.10;;;;;;4961997;28;20038;-76
2024/03/04 12:02:26;;;;;;;2.60;2.35;;;9.40;7.30;;;;;;4943113;28;20049;-77
2024/03/04 12:04:56;;;;;;;2.75;2.55;;;9.40;22.50;;;;;;4966194;28;20416;-77
2024/03/04 12:07:22;;;;;;;2.40;2.17;;;9.40;26.90;;;;;;4967893;28;20392;-77
2024/03/04 12:09:48;;;;;;;7.28;3.15;;;9.50;41.50;;;;;;4969056;28;20451;-77
2024/03/04 12:12:15;;;;;;;5.55;3.92;;;9.60;21.60;;;;;;4962667;28;20468;-78
2024/03/04 12:14:43;;;;;;;7.93;2.97;;;9.50;2.50;;;;;;4960964;28;20058;-78
2024/03/04 12:17:11;;;;;;;3.20;2.30;;;9.60;6.90;;;;;;4966166;28;20043;-77
2024/03/04 12:19:37;;;;;;;3.08;2.30;;;9.70;1.00;;;;;;4966800;28;20038;-77
2024/03/04 12:22:04;;;;;;;2.35;2.08;;;9.90;1.00;;;;;;4967714;28;20496;-77
2024/03/04 12:24:31;;;;;;;3.20;3.00;;;9.80;1.00;;;;;;4965415;28;20023;-77
2024/03/04 12:26:57;;;;;;;2.95;2.22;;;9.80;1.00;;;;;;4964533;28;20031;-77
2024/03/04 12:29:25;;;;;;;7.60;3.38;;;9.80;1.00;;;;;;4976327;28;20031;-78
2024/03/04 12:31:55;;;;;;;23.75;3.20;;;9.90;1.00;;;;;;4978670;28;20043;-77
2024/03/04 12:34:22;;;;;;;2.95;1.42;;;10.00;1.00;;;;;;4976657;28;20042;-78
2024/03/04 12:36:51;;;;;;;16.83;3.65;;;10.10;1.00;;;;;;4967508;28;20421;-77
2024/03/04 12:39:20;;;;;;;1.85;1.65;;;10.30;1.00;;;;;;4965862;28;20039;-77
2024/03/04 12:41:50;;;;;;;2.78;2.35;;;10.10;1.00;;;;;;4952476;28;20035;-77
2024/03/04 12:44:18;;;;;;;6.43;3.63;;;10.20;1.00;;;;;;4958767;28;20058;-77
2024/03/04 12:46:47;;;;;;;3.25;2.95;;;10.30;1.00;;;;;;4961078;28;20051;-77
2024/03/04 12:49:15;;;;;;;3.22;2.90;;;10.30;1.00;;;;;;4964913;28;20491;-77
2024/03/04 12:51:43;;;;;;;5.70;3.53;;;10.50;1.00;;;;;;4966160;28;20068;-78
2024/03/04 12:54:27;;;;;;;8.15;4.45;;;10.60;99.90;;;;;;4964642;28;20061;-77
2024/03/04 12:56:54;;;;;;;2.33;2.13;;;10.30;1.00;;;;;;4963578;28;20473;-78
2024/03/04 12:59:21;;;;;;;7.88;2.72;;;10.20;1.00;;;;;;4967431;28;20030;-78